Bennettsville, South Carolina
Current Conditions -  °F | °C
As of 1:55 PM on Sunday 23 Nov 2014 (Local Time) from KBBP Reporting Station
Light Rain Light Rain  
Wind Chill: 59°   Ceiling: 900
Heat Index: 59°   Visibility: 5mi
Dew Point: 59°   Wind: 5mph
Humidity: 100%   Direction: 40°NE
Pressure: 30.01"   Gusts: NA
Location:  34.61°N, 79.68°W
Report Text: KBBP 231855Z AUTO 04004KT 5SM -RA OVC009 15/15 A3001 RMK AO2 P0008
Loading
Personal Weather Stations






























Interactive Weather Map New forecast layout! Learn more

10-Day Weather Forecast

Advertisements
Track Severe Weather on mobile